sensor_id;sensor_type;location;lat;lon;timestamp;P1;durP1;ratioP1;P2;durP2;ratioP2
52508;SDS011;38420;53.150;6.370;2024-02-15T00:01:57;76.13;;;69.70;;
52508;SDS011;38420;53.150;6.370;2024-02-15T00:04:22;75.80;;;69.30;;
52508;SDS011;38420;53.150;6.370;2024-02-15T00:06:48;76.88;;;69.68;;
52508;SDS011;38420;53.150;6.370;2024-02-15T00:09:14;74.43;;;68.43;;
52508;SDS011;38420;53.150;6.370;2024-02-15T00:11:39;77.75;;;70.55;;
52508;SDS011;38420;53.150;6.370;2024-02-15T00:14:05;76.32;;;69.88;;
52508;SDS011;38420;53.150;6.370;2024-02-15T00:16:32;76.75;;;70.00;;
52508;SDS011;38420;53.150;6.370;2024-02-15T00:18:58;75.90;;;69.38;;
52508;SDS011;38420;53.150;6.370;2024-02-15T00:21:24;78.50;;;71.68;;
52508;SDS011;38420;53.150;6.370;2024-02-15T00:23:50;74.25;;;67.85;;
52508;SDS011;38420;53.150;6.370;2024-02-15T00:26:16;79.90;;;72.60;;
52508;SDS011;38420;53.150;6.370;2024-02-15T00:28:41;80.93;;;73.85;;
52508;SDS011;38420;53.150;6.370;2024-02-15T00:31:07;80.90;;;73.55;;
52508;SDS011;38420;53.150;6.370;2024-02-15T00:33:33;77.85;;;70.78;;
52508;SDS011;38420;53.150;6.370;2024-02-15T00:36:02;80.53;;;73.30;;
52508;SDS011;38420;53.150;6.370;2024-02-15T00:38:29;77.38;;;70.40;;
52508;SDS011;38420;53.150;6.370;2024-02-15T00:40:56;77.00;;;69.93;;
52508;SDS011;38420;53.150;6.370;2024-02-15T00:43:22;75.55;;;69.15;;
52508;SDS011;38420;53.150;6.370;2024-02-15T00:45:47;78.25;;;71.63;;
52508;SDS011;38420;53.150;6.370;2024-02-15T00:48:13;81.72;;;74.03;;
52508;SDS011;38420;53.150;6.370;2024-02-15T00:50:39;78.70;;;72.32;;
52508;SDS011;38420;53.150;6.370;2024-02-15T00:53:04;77.22;;;69.93;;
52508;SDS011;38420;53.150;6.370;2024-02-15T00:55:30;77.68;;;70.35;;
52508;SDS011;38420;53.150;6.370;2024-02-15T00:57:56;78.20;;;71.43;;
52508;SDS011;38420;53.150;6.370;2024-02-15T01:00:22;77.57;;;70.95;;
52508;SDS011;38420;53.150;6.370;2024-02-15T01:02:48;77.75;;;69.78;;
52508;SDS011;38420;53.150;6.370;2024-02-15T01:05:14;79.72;;;72.45;;
52508;SDS011;38420;53.150;6.370;2024-02-15T01:07:40;76.68;;;70.07;;
52508;SDS011;38420;53.150;6.370;2024-02-15T01:10:06;73.40;;;67.55;;
52508;SDS011;38420;53.150;6.370;2024-02-15T01:12:32;75.03;;;68.82;;
52508;SDS011;38420;53.150;6.370;2024-02-15T01:14:58;76.43;;;69.60;;
52508;SDS011;38420;53.150;6.370;2024-02-15T01:17:24;75.65;;;69.13;;
52508;SDS011;38420;53.150;6.370;2024-02-15T01:19:50;72.03;;;65.82;;
52508;SDS011;38420;53.150;6.370;2024-02-15T01:22:16;72.63;;;66.38;;
52508;SDS011;38420;53.150;6.370;2024-02-15T01:24:42;74.60;;;68.32;;
52508;SDS011;38420;53.150;6.370;2024-02-15T01:27:07;73.55;;;67.68;;
52508;SDS011;38420;53.150;6.370;2024-02-15T01:29:34;66.88;;;61.90;;
52508;SDS011;38420;53.150;6.370;2024-02-15T01:32:00;70.65;;;64.93;;
52508;SDS011;38420;53.150;6.370;2024-02-15T01:34:27;71.35;;;65.40;;
52508;SDS011;38420;53.150;6.370;2024-02-15T01:36:53;69.35;;;64.07;;
52508;SDS011;38420;53.150;6.370;2024-02-15T01:39:19;68.07;;;62.65;;
52508;SDS011;38420;53.150;6.370;2024-02-15T01:41:48;68.53;;;63.10;;
52508;SDS011;38420;53.150;6.370;2024-02-15T01:46:43;67.45;;;62.28;;
52508;SDS011;38420;53.150;6.370;2024-02-15T01:49:09;66.45;;;61.35;;
52508;SDS011;38420;53.150;6.370;2024-02-15T01:51:35;67.50;;;61.67;;
52508;SDS011;38420;53.150;6.370;2024-02-15T01:54:02;67.22;;;61.60;;
52508;SDS011;38420;53.150;6.370;2024-02-15T01:56:28;66.05;;;60.50;;
52508;SDS011;38420;53.150;6.370;2024-02-15T01:58:55;65.88;;;60.17;;
52508;SDS011;38420;53.150;6.370;2024-02-15T02:01:22;66.05;;;61.00;;
52508;SDS011;38420;53.150;6.370;2024-02-15T02:03:48;64.05;;;59.13;;
52508;SDS011;38420;53.150;6.370;2024-02-15T02:06:13;65.93;;;60.67;;
52508;SDS011;38420;53.150;6.370;2024-02-15T02:08:39;66.25;;;61.22;;
52508;SDS011;38420;53.150;6.370;2024-02-15T02:11:05;65.47;;;60.75;;
52508;SDS011;38420;53.150;6.370;2024-02-15T02:13:31;67.85;;;62.10;;
52508;SDS011;38420;53.150;6.370;2024-02-15T02:15:57;64.85;;;59.65;;
52508;SDS011;38420;53.150;6.370;2024-02-15T02:18:24;61.97;;;56.63;;
52508;SDS011;38420;53.150;6.370;2024-02-15T02:20:50;63.25;;;58.25;;
52508;SDS011;38420;53.150;6.370;2024-02-15T02:23:16;60.78;;;55.70;;
52508;SDS011;38420;53.150;6.370;2024-02-15T02:25:47;57.42;;;53.15;;
52508;SDS011;38420;53.150;6.370;2024-02-15T02:28:14;56.20;;;51.55;;
52508;SDS011;38420;53.150;6.370;2024-02-15T02:30:41;58.08;;;53.55;;
52508;SDS011;38420;53.150;6.370;2024-02-15T02:33:13;60.95;;;56.13;;
52508;SDS011;38420;53.150;6.370;2024-02-15T02:35:44;58.85;;;54.38;;
52508;SDS011;38420;53.150;6.370;2024-02-15T02:38:10;57.35;;;52.53;;
52508;SDS011;38420;53.150;6.370;2024-02-15T02:40:36;55.97;;;52.00;;
52508;SDS011;38420;53.150;6.370;2024-02-15T02:43:02;55.58;;;51.25;;
52508;SDS011;38420;53.150;6.370;2024-02-15T02:45:27;56.72;;;52.72;;
52508;SDS011;38420;53.150;6.370;2024-02-15T02:47:54;56.83;;;52.13;;
52508;SDS011;38420;53.150;6.370;2024-02-15T02:50:22;55.60;;;51.17;;
52508;SDS011;38420;53.150;6.370;2024-02-15T02:52:49;51.78;;;47.63;;
52508;SDS011;38420;53.150;6.370;2024-02-15T02:55:15;55.47;;;51.22;;
52508;SDS011;38420;53.150;6.370;2024-02-15T02:57:41;55.63;;;51.40;;
52508;SDS011;38420;53.150;6.370;2024-02-15T03:02:37;56.03;;;51.92;;
52508;SDS011;38420;53.150;6.370;2024-02-15T03:05:03;55.05;;;50.47;;
52508;SDS011;38420;53.150;6.370;2024-02-15T03:07:34;53.95;;;49.63;;
52508;SDS011;38420;53.150;6.370;2024-02-15T03:10:01;52.53;;;48.97;;
52508;SDS011;38420;53.150;6.370;2024-02-15T03:12:33;52.13;;;48.13;;
52508;SDS011;38420;53.150;6.370;2024-02-15T03:15:01;48.92;;;45.47;;
52508;SDS011;38420;53.150;6.370;2024-02-15T03:17:28;51.25;;;47.65;;
52508;SDS011;38420;53.150;6.370;2024-02-15T03:19:56;54.53;;;50.65;;
52508;SDS011;38420;53.150;6.370;2024-02-15T03:22:22;54.22;;;50.10;;
52508;SDS011;38420;53.150;6.370;2024-02-15T03:24:50;54.95;;;49.90;;
52508;SDS011;38420;53.150;6.370;2024-02-15T03:27:16;57.33;;;52.55;;
52508;SDS011;38420;53.150;6.370;2024-02-15T03:29:41;57.30;;;52.30;;
52508;SDS011;38420;53.150;6.370;2024-02-15T03:32:07;54.17;;;49.85;;
52508;SDS011;38420;53.150;6.370;2024-02-15T03:34:34;54.47;;;50.22;;
52508;SDS011;38420;53.150;6.370;2024-02-15T03:37:00;55.15;;;50.67;;
52508;SDS011;38420;53.150;6.370;2024-02-15T03:39:28;55.90;;;51.58;;
52508;SDS011;38420;53.150;6.370;2024-02-15T03:41:55;57.00;;;51.58;;
52508;SDS011;38420;53.150;6.370;2024-02-15T03:44:21;54.55;;;50.50;;
52508;SDS011;38420;53.150;6.370;2024-02-15T03:46:51;53.80;;;48.90;;
52508;SDS011;38420;53.150;6.370;2024-02-15T03:49:20;56.50;;;52.08;;
52508;SDS011;38420;53.150;6.370;2024-02-15T03:51:47;51.88;;;47.60;;
52508;SDS011;38420;53.150;6.370;2024-02-15T03:54:14;54.78;;;50.13;;
52508;SDS011;38420;53.150;6.370;2024-02-15T03:56:46;53.63;;;49.08;;
52508;SDS011;38420;53.150;6.370;2024-02-15T03:59:16;54.75;;;50.55;;
52508;SDS011;38420;53.150;6.370;2024-02-15T04:01:43;54.78;;;50.58;;
52508;SDS011;38420;53.150;6.370;2024-02-15T04:04:08;53.72;;;48.92;;
52508;SDS011;38420;53.150;6.370;2024-02-15T04:06:34;54.92;;;50.35;;
52508;SDS011;38420;53.150;6.370;2024-02-15T04:09:01;52.42;;;48.28;;
52508;SDS011;38420;53.150;6.370;2024-02-15T04:11:26;53.40;;;48.55;;
52508;SDS011;38420;53.150;6.370;2024-02-15T04:13:52;53.05;;;48.40;;
52508;SDS011;38420;53.150;6.370;2024-02-15T04:16:18;54.45;;;49.30;;
52508;SDS011;38420;53.150;6.370;2024-02-15T04:18:43;53.60;;;48.85;;
52508;SDS011;38420;53.150;6.370;2024-02-15T04:21:10;51.10;;;47.17;;
52508;SDS011;38420;53.150;6.370;2024-02-15T04:23:36;50.15;;;45.85;;
52508;SDS011;38420;53.150;6.370;2024-02-15T04:26:02;48.28;;;44.13;;
52508;SDS011;38420;53.150;6.370;2024-02-15T04:28:28;47.20;;;42.63;;
52508;SDS011;38420;53.150;6.370;2024-02-15T04:30:54;47.42;;;43.42;;
52508;SDS011;38420;53.150;6.370;2024-02-15T04:33:20;48.75;;;44.55;;
52508;SDS011;38420;53.150;6.370;2024-02-15T04:35:46;46.22;;;42.42;;
52508;SDS011;38420;53.150;6.370;2024-02-15T04:38:13;45.47;;;41.72;;
52508;SDS011;38420;53.150;6.370;2024-02-15T04:40:39;47.78;;;43.35;;
52508;SDS011;38420;53.150;6.370;2024-02-15T04:43:05;46.08;;;41.97;;
52508;SDS011;38420;53.150;6.370;2024-02-15T04:45:33;47.70;;;43.58;;
52508;SDS011;38420;53.150;6.370;2024-02-15T04:48:00;46.67;;;42.45;;
52508;SDS011;38420;53.150;6.370;2024-02-15T04:50:28;46.08;;;41.60;;
52508;SDS011;38420;53.150;6.370;2024-02-15T04:52:54;44.70;;;40.80;;
52508;SDS011;38420;53.150;6.370;2024-02-15T04:55:20;45.88;;;42.47;;
52508;SDS011;38420;53.150;6.370;2024-02-15T04:57:47;45.72;;;41.78;;
52508;SDS011;38420;53.150;6.370;2024-02-15T05:00:14;46.63;;;42.92;;
52508;SDS011;38420;53.150;6.370;2024-02-15T05:02:41;47.53;;;43.40;;
52508;SDS011;38420;53.150;6.370;2024-02-15T05:05:09;45.55;;;41.72;;
52508;SDS011;38420;53.150;6.370;2024-02-15T05:07:37;48.50;;;44.10;;
52508;SDS011;38420;53.150;6.370;2024-02-15T05:10:06;52.00;;;47.80;;
52508;SDS011;38420;53.150;6.370;2024-02-15T05:12:33;51.53;;;47.40;;
52508;SDS011;38420;53.150;6.370;2024-02-15T05:14:59;53.08;;;48.00;;
52508;SDS011;38420;53.150;6.370;2024-02-15T05:17:25;52.63;;;48.22;;
52508;SDS011;38420;53.150;6.370;2024-02-15T05:19:53;56.05;;;51.50;;
52508;SDS011;38420;53.150;6.370;2024-02-15T05:22:19;54.45;;;49.92;;
52508;SDS011;38420;53.150;6.370;2024-02-15T05:24:44;55.67;;;50.65;;
52508;SDS011;38420;53.150;6.370;2024-02-15T05:27:10;57.22;;;51.95;;
52508;SDS011;38420;53.150;6.370;2024-02-15T05:29:36;58.83;;;53.50;;
52508;SDS011;38420;53.150;6.370;2024-02-15T05:32:02;60.40;;;55.10;;
52508;SDS011;38420;53.150;6.370;2024-02-15T05:34:28;59.55;;;54.70;;
52508;SDS011;38420;53.150;6.370;2024-02-15T05:36:54;59.45;;;54.42;;
52508;SDS011;38420;53.150;6.370;2024-02-15T05:39:20;59.42;;;54.53;;
52508;SDS011;38420;53.150;6.370;2024-02-15T05:41:47;60.13;;;54.63;;
52508;SDS011;38420;53.150;6.370;2024-02-15T05:44:13;63.35;;;57.38;;
52508;SDS011;38420;53.150;6.370;2024-02-15T05:46:44;61.10;;;55.30;;
52508;SDS011;38420;53.150;6.370;2024-02-15T05:49:10;60.13;;;54.67;;
52508;SDS011;38420;53.150;6.370;2024-02-15T05:51:40;59.38;;;54.45;;
52508;SDS011;38420;53.150;6.370;2024-02-15T05:54:07;61.25;;;55.78;;
52508;SDS011;38420;53.150;6.370;2024-02-15T05:56:32;61.42;;;56.22;;
52508;SDS011;38420;53.150;6.370;2024-02-15T05:58:58;64.65;;;58.75;;
52508;SDS011;38420;53.150;6.370;2024-02-15T06:01:23;66.78;;;60.72;;
52508;SDS011;38420;53.150;6.370;2024-02-15T06:03:49;64.75;;;58.65;;
52508;SDS011;38420;53.150;6.370;2024-02-15T06:06:19;64.75;;;59.10;;
52508;SDS011;38420;53.150;6.370;2024-02-15T06:08:46;67.80;;;61.40;;
52508;SDS011;38420;53.150;6.370;2024-02-15T06:11:12;68.65;;;62.13;;
52508;SDS011;38420;53.150;6.370;2024-02-15T06:13:39;69.10;;;62.67;;
52508;SDS011;38420;53.150;6.370;2024-02-15T06:16:06;69.50;;;62.90;;
52508;SDS011;38420;53.150;6.370;2024-02-15T06:18:34;70.63;;;64.43;;
52508;SDS011;38420;53.150;6.370;2024-02-15T06:21:00;69.90;;;63.05;;
52508;SDS011;38420;53.150;6.370;2024-02-15T06:23:27;71.53;;;65.38;;
52508;SDS011;38420;53.150;6.370;2024-02-15T06:25:53;72.15;;;65.85;;
52508;SDS011;38420;53.150;6.370;2024-02-15T06:28:21;74.25;;;67.32;;
52508;SDS011;38420;53.150;6.370;2024-02-15T06:31:09;72.53;;;65.60;;
52508;SDS011;38420;53.150;6.370;2024-02-15T06:33:54;69.10;;;63.00;;
52508;SDS011;38420;53.150;6.370;2024-02-15T06:36:52;69.38;;;62.67;;
52508;SDS011;38420;53.150;6.370;2024-02-15T06:39:37;69.07;;;62.70;;
52508;SDS011;38420;53.150;6.370;2024-02-15T06:42:15;69.30;;;63.53;;
52508;SDS011;38420;53.150;6.370;2024-02-15T06:44:43;70.40;;;64.35;;
52508;SDS011;38420;53.150;6.370;2024-02-15T06:47:09;69.20;;;63.15;;
52508;SDS011;38420;53.150;6.370;2024-02-15T06:49:36;69.43;;;63.03;;
52508;SDS011;38420;53.150;6.370;2024-02-15T06:52:05;70.95;;;64.65;;
52508;SDS011;38420;53.150;6.370;2024-02-15T06:54:32;68.32;;;62.65;;
52508;SDS011;38420;53.150;6.370;2024-02-15T06:57:00;68.00;;;61.90;;
52508;SDS011;38420;53.150;6.370;2024-02-15T06:59:27;67.25;;;61.05;;
52508;SDS011;38420;53.150;6.370;2024-02-15T07:01:53;68.93;;;62.58;;
52508;SDS011;38420;53.150;6.370;2024-02-15T07:04:20;68.95;;;62.42;;
52508;SDS011;38420;53.150;6.370;2024-02-15T07:06:45;72.13;;;65.50;;
52508;SDS011;38420;53.150;6.370;2024-02-15T07:09:13;69.57;;;63.25;;
52508;SDS011;38420;53.150;6.370;2024-02-15T07:11:44;67.53;;;61.00;;
52508;SDS011;38420;53.150;6.370;2024-02-15T07:14:11;68.75;;;62.22;;
52508;SDS011;38420;53.150;6.370;2024-02-15T07:16:37;66.75;;;61.08;;
52508;SDS011;38420;53.150;6.370;2024-02-15T07:19:03;69.03;;;62.70;;
52508;SDS011;38420;53.150;6.370;2024-02-15T07:21:29;66.15;;;59.83;;
52508;SDS011;38420;53.150;6.370;2024-02-15T07:23:56;68.05;;;62.05;;
52508;SDS011;38420;53.150;6.370;2024-02-15T07:26:25;70.93;;;62.00;;
52508;SDS011;38420;53.150;6.370;2024-02-15T07:28:52;65.97;;;60.25;;
52508;SDS011;38420;53.150;6.370;2024-02-15T07:31:18;67.13;;;61.17;;
52508;SDS011;38420;53.150;6.370;2024-02-15T07:33:46;68.68;;;62.53;;
52508;SDS011;38420;53.150;6.370;2024-02-15T07:36:17;68.53;;;62.22;;
52508;SDS011;38420;53.150;6.370;2024-02-15T07:38:43;63.53;;;58.53;;
52508;SDS011;38420;53.150;6.370;2024-02-15T07:41:10;67.22;;;61.55;;
52508;SDS011;38420;53.150;6.370;2024-02-15T07:43:37;65.50;;;59.42;;
52508;SDS011;38420;53.150;6.370;2024-02-15T07:46:04;64.55;;;58.30;;
52508;SDS011;38420;53.150;6.370;2024-02-15T07:48:29;65.05;;;59.15;;
52508;SDS011;38420;53.150;6.370;2024-02-15T07:50:56;66.28;;;60.15;;
52508;SDS011;38420;53.150;6.370;2024-02-15T07:53:23;64.63;;;58.92;;
52508;SDS011;38420;53.150;6.370;2024-02-15T07:55:50;62.63;;;57.38;;
52508;SDS011;38420;53.150;6.370;2024-02-15T07:58:16;62.30;;;56.95;;
52508;SDS011;38420;53.150;6.370;2024-02-15T08:00:44;60.58;;;55.72;;
52508;SDS011;38420;53.150;6.370;2024-02-15T08:03:10;62.40;;;57.08;;
52508;SDS011;38420;53.150;6.370;2024-02-15T08:05:36;61.40;;;56.30;;
52508;SDS011;38420;53.150;6.370;2024-02-15T08:08:03;62.53;;;57.17;;
52508;SDS011;38420;53.150;6.370;2024-02-15T08:10:29;61.30;;;56.58;;
52508;SDS011;38420;53.150;6.370;2024-02-15T08:12:55;65.65;;;59.75;;
52508;SDS011;38420;53.150;6.370;2024-02-15T08:15:23;63.28;;;58.22;;
52508;SDS011;38420;53.150;6.370;2024-02-15T08:17:49;59.97;;;55.33;;
52508;SDS011;38420;53.150;6.370;2024-02-15T08:20:15;62.80;;;57.85;;
52508;SDS011;38420;53.150;6.370;2024-02-15T08:25:12;64.40;;;59.28;;
52508;SDS011;38420;53.150;6.370;2024-02-15T08:27:40;61.25;;;56.50;;
52508;SDS011;38420;53.150;6.370;2024-02-15T08:30:11;64.72;;;59.33;;
52508;SDS011;38420;53.150;6.370;2024-02-15T08:32:38;66.45;;;61.63;;
52508;SDS011;38420;53.150;6.370;2024-02-15T08:35:07;65.32;;;60.08;;
52508;SDS011;38420;53.150;6.370;2024-02-15T08:37:37;63.80;;;59.10;;
52508;SDS011;38420;53.150;6.370;2024-02-15T08:40:04;62.97;;;58.15;;
52508;SDS011;38420;53.150;6.370;2024-02-15T08:42:37;65.05;;;60.22;;
52508;SDS011;38420;53.150;6.370;2024-02-15T08:45:04;64.43;;;59.63;;
52508;SDS011;38420;53.150;6.370;2024-02-15T08:47:30;64.57;;;59.42;;
52508;SDS011;38420;53.150;6.370;2024-02-15T08:49:56;63.60;;;58.30;;
52508;SDS011;38420;53.150;6.370;2024-02-15T08:52:24;62.60;;;57.85;;
52508;SDS011;38420;53.150;6.370;2024-02-15T08:54:51;60.97;;;56.47;;
52508;SDS011;38420;53.150;6.370;2024-02-15T08:57:17;60.15;;;55.80;;
52508;SDS011;38420;53.150;6.370;2024-02-15T08:59:44;60.53;;;55.90;;
52508;SDS011;38420;53.150;6.370;2024-02-15T09:02:09;63.85;;;58.70;;
52508;SDS011;38420;53.150;6.370;2024-02-15T09:04:35;61.80;;;57.15;;
52508;SDS011;38420;53.150;6.370;2024-02-15T09:07:01;59.17;;;54.75;;
52508;SDS011;38420;53.150;6.370;2024-02-15T09:09:29;60.13;;;55.85;;
52508;SDS011;38420;53.150;6.370;2024-02-15T09:11:56;61.08;;;56.33;;
52508;SDS011;38420;53.150;6.370;2024-02-15T09:14:22;61.88;;;57.53;;
52508;SDS011;38420;53.150;6.370;2024-02-15T09:16:48;63.10;;;58.17;;
52508;SDS011;38420;53.150;6.370;2024-02-15T09:19:15;65.32;;;59.83;;
52508;SDS011;38420;53.150;6.370;2024-02-15T09:21:40;63.55;;;58.95;;
52508;SDS011;38420;53.150;6.370;2024-02-15T09:24:06;65.82;;;60.83;;
52508;SDS011;38420;53.150;6.370;2024-02-15T09:26:32;64.43;;;59.30;;
52508;SDS011;38420;53.150;6.370;2024-02-15T09:28:57;63.15;;;58.65;;
52508;SDS011;38420;53.150;6.370;2024-02-15T09:31:23;62.60;;;57.97;;
52508;SDS011;38420;53.150;6.370;2024-02-15T09:33:50;62.30;;;57.83;;
52508;SDS011;38420;53.150;6.370;2024-02-15T09:36:15;62.10;;;57.35;;
52508;SDS011;38420;53.150;6.370;2024-02-15T09:38:41;62.95;;;58.05;;
52508;SDS011;38420;53.150;6.370;2024-02-15T09:41:07;63.28;;;58.53;;
52508;SDS011;38420;53.150;6.370;2024-02-15T09:43:34;64.68;;;59.63;;
52508;SDS011;38420;53.150;6.370;2024-02-15T09:46:00;63.33;;;58.88;;
52508;SDS011;38420;53.150;6.370;2024-02-15T09:48:29;62.92;;;58.33;;
52508;SDS011;38420;53.150;6.370;2024-02-15T09:50:57;62.60;;;57.97;;
52508;SDS011;38420;53.150;6.370;2024-02-15T09:53:23;61.67;;;57.42;;
52508;SDS011;38420;53.150;6.370;2024-02-15T09:55:55;62.78;;;58.28;;
52508;SDS011;38420;53.150;6.370;2024-02-15T09:58:29;60.40;;;56.33;;
52508;SDS011;38420;53.150;6.370;2024-02-15T10:00:59;61.00;;;56.85;;
52508;SDS011;38420;53.150;6.370;2024-02-15T10:03:29;61.67;;;57.33;;
52508;SDS011;38420;53.150;6.370;2024-02-15T10:05:56;61.88;;;57.47;;
52508;SDS011;38420;53.150;6.370;2024-02-15T10:08:22;62.30;;;57.90;;
52508;SDS011;38420;53.150;6.370;2024-02-15T10:11:05;59.88;;;55.97;;
52508;SDS011;38420;53.150;6.370;2024-02-15T10:13:33;59.88;;;55.40;;
52508;SDS011;38420;53.150;6.370;2024-02-15T10:15:59;58.90;;;54.83;;
52508;SDS011;38420;53.150;6.370;2024-02-15T10:18:38;55.70;;;51.95;;
52508;SDS011;38420;53.150;6.370;2024-02-15T10:21:04;57.22;;;53.42;;
52508;SDS011;38420;53.150;6.370;2024-02-15T10:23:29;56.33;;;52.58;;
52508;SDS011;38420;53.150;6.370;2024-02-15T10:25:55;54.78;;;51.28;;
52508;SDS011;38420;53.150;6.370;2024-02-15T10:28:23;56.05;;;52.30;;
52508;SDS011;38420;53.150;6.370;2024-02-15T10:30:49;55.20;;;51.50;;
52508;SDS011;38420;53.150;6.370;2024-02-15T10:33:18;52.15;;;48.80;;
52508;SDS011;38420;53.150;6.370;2024-02-15T10:35:47;53.08;;;49.67;;
52508;SDS011;38420;53.150;6.370;2024-02-15T10:38:13;54.15;;;50.58;;
52508;SDS011;38420;53.150;6.370;2024-02-15T10:40:40;54.08;;;50.67;;
52508;SDS011;38420;53.150;6.370;2024-02-15T10:43:08;53.67;;;50.42;;
52508;SDS011;38420;53.150;6.370;2024-02-15T10:45:38;53.63;;;50.22;;
52508;SDS011;38420;53.150;6.370;2024-02-15T10:48:08;53.08;;;49.75;;
52508;SDS011;38420;53.150;6.370;2024-02-15T10:50:35;54.17;;;50.95;;
52508;SDS011;38420;53.150;6.370;2024-02-15T10:53:03;54.85;;;51.42;;
52508;SDS011;38420;53.150;6.370;2024-02-15T10:59:12;53.33;;;50.10;;
52508;SDS011;38420;53.150;6.370;2024-02-15T11:01:43;55.33;;;51.92;;
52508;SDS011;38420;53.150;6.370;2024-02-15T11:04:12;56.35;;;52.85;;
52508;SDS011;38420;53.150;6.370;2024-02-15T11:06:40;57.67;;;53.88;;
52508;SDS011;38420;53.150;6.370;2024-02-15T11:09:09;58.60;;;55.05;;
52508;SDS011;38420;53.150;6.370;2024-02-15T11:11:37;58.30;;;54.60;;
52508;SDS011;38420;53.150;6.370;2024-02-15T11:14:23;57.40;;;53.95;;
52508;SDS011;38420;53.150;6.370;2024-02-15T11:16:54;57.72;;;54.15;;
52508;SDS011;38420;53.150;6.370;2024-02-15T11:22:01;56.75;;;53.25;;
52508;SDS011;38420;53.150;6.370;2024-02-15T11:24:48;55.60;;;52.15;;
52508;SDS011;38420;53.150;6.370;2024-02-15T11:27:26;54.00;;;50.85;;
52508;SDS011;38420;53.150;6.370;2024-02-15T11:40:17;52.03;;;49.08;;
52508;SDS011;38420;53.150;6.370;2024-02-15T11:42:45;49.80;;;47.00;;
52508;SDS011;38420;53.150;6.370;2024-02-15T11:45:12;50.53;;;47.53;;
52508;SDS011;38420;53.150;6.370;2024-02-15T11:47:40;50.47;;;47.72;;
52508;SDS011;38420;53.150;6.370;2024-02-15T11:50:14;50.25;;;47.40;;
52508;SDS011;38420;53.150;6.370;2024-02-15T11:53:01;47.97;;;45.30;;
52508;SDS011;38420;53.150;6.370;2024-02-15T11:55:31;49.63;;;46.83;;
52508;SDS011;38420;53.150;6.370;2024-02-15T11:58:04;49.85;;;47.08;;
52508;SDS011;38420;53.150;6.370;2024-02-15T12:00:42;48.22;;;45.60;;
52508;SDS011;38420;53.150;6.370;2024-02-15T12:03:26;47.55;;;44.90;;
52508;SDS011;38420;53.150;6.370;2024-02-15T12:06:11;43.95;;;41.45;;
52508;SDS011;38420;53.150;6.370;2024-02-15T12:08:55;45.90;;;43.35;;
52508;SDS011;38420;53.150;6.370;2024-02-15T12:11:39;44.38;;;41.92;;
52508;SDS011;38420;53.150;6.370;2024-02-15T12:14:24;44.92;;;42.42;;
52508;SDS011;38420;53.150;6.370;2024-02-15T12:17:10;43.97;;;41.55;;
52508;SDS011;38420;53.150;6.370;2024-02-15T12:19:56;46.47;;;43.80;;
52508;SDS011;38420;53.150;6.370;2024-02-15T12:22:32;45.67;;;43.03;;
52508;SDS011;38420;53.150;6.370;2024-02-15T12:24:59;46.28;;;43.67;;
52508;SDS011;38420;53.150;6.370;2024-02-15T12:27:26;47.08;;;44.10;;
52508;SDS011;38420;53.150;6.370;2024-02-15T12:29:56;46.58;;;43.58;;
52508;SDS011;38420;53.150;6.370;2024-02-15T12:32:22;46.03;;;43.40;;
52508;SDS011;38420;53.150;6.370;2024-02-15T12:34:52;45.70;;;42.97;;
52508;SDS011;38420;53.150;6.370;2024-02-15T12:37:19;45.65;;;42.95;;
52508;SDS011;38420;53.150;6.370;2024-02-15T12:39:48;43.33;;;40.80;;
52508;SDS011;38420;53.150;6.370;2024-02-15T12:42:18;44.75;;;41.92;;
52508;SDS011;38420;53.150;6.370;2024-02-15T12:44:45;45.45;;;42.45;;
52508;SDS011;38420;53.150;6.370;2024-02-15T12:47:18;44.80;;;41.80;;
52508;SDS011;38420;53.150;6.370;2024-02-15T12:49:45;44.55;;;41.70;;
52508;SDS011;38420;53.150;6.370;2024-02-15T12:55:13;47.72;;;44.72;;
52508;SDS011;38420;53.150;6.370;2024-02-15T12:57:40;46.85;;;43.63;;
52508;SDS011;38420;53.150;6.370;2024-02-15T13:00:11;47.33;;;43.97;;
52508;SDS011;38420;53.150;6.370;2024-02-15T13:02:42;48.28;;;45.08;;
52508;SDS011;38420;53.150;6.370;2024-02-15T13:05:09;49.25;;;45.97;;
52508;SDS011;38420;53.150;6.370;2024-02-15T13:07:37;47.60;;;44.20;;
52508;SDS011;38420;53.150;6.370;2024-02-15T13:10:04;48.55;;;45.15;;
52508;SDS011;38420;53.150;6.370;2024-02-15T13:12:34;49.38;;;45.80;;
52508;SDS011;38420;53.150;6.370;2024-02-15T13:15:01;47.83;;;44.33;;
52508;SDS011;38420;53.150;6.370;2024-02-15T13:17:32;47.63;;;44.13;;
52508;SDS011;38420;53.150;6.370;2024-02-15T13:19:59;44.60;;;41.65;;
52508;SDS011;38420;53.150;6.370;2024-02-15T13:22:30;47.22;;;43.80;;
52508;SDS011;38420;53.150;6.370;2024-02-15T13:24:56;43.50;;;40.80;;
52508;SDS011;38420;53.150;6.370;2024-02-15T13:27:22;42.10;;;39.10;;
52508;SDS011;38420;53.150;6.370;2024-02-15T13:29:49;43.45;;;40.75;;
52508;SDS011;38420;53.150;6.370;2024-02-15T13:32:15;42.75;;;39.95;;
52508;SDS011;38420;53.150;6.370;2024-02-15T13:34:46;43.30;;;40.13;;
52508;SDS011;38420;53.150;6.370;2024-02-15T13:37:16;43.63;;;40.70;;
52508;SDS011;38420;53.150;6.370;2024-02-15T13:39:43;44.30;;;41.53;;
52508;SDS011;38420;53.150;6.370;2024-02-15T13:42:11;43.95;;;40.95;;
52508;SDS011;38420;53.150;6.370;2024-02-15T13:44:37;44.33;;;41.63;;
52508;SDS011;38420;53.150;6.370;2024-02-15T13:47:02;47.13;;;43.85;;
52508;SDS011;38420;53.150;6.370;2024-02-15T13:49:28;47.53;;;44.03;;
52508;SDS011;38420;53.150;6.370;2024-02-15T13:51:56;47.67;;;44.25;;
52508;SDS011;38420;53.150;6.370;2024-02-15T13:54:28;47.47;;;44.38;;
52508;SDS011;38420;53.150;6.370;2024-02-15T13:56:55;48.30;;;44.92;;
52508;SDS011;38420;53.150;6.370;2024-02-15T13:59:21;46.10;;;43.13;;
52508;SDS011;38420;53.150;6.370;2024-02-15T14:01:48;47.30;;;44.00;;
52508;SDS011;38420;53.150;6.370;2024-02-15T14:04:14;48.50;;;45.28;;
52508;SDS011;38420;53.150;6.370;2024-02-15T14:06:41;47.47;;;44.28;;
52508;SDS011;38420;53.150;6.370;2024-02-15T14:09:09;45.95;;;42.88;;
52508;SDS011;38420;53.150;6.370;2024-02-15T14:11:36;46.22;;;43.35;;
52508;SDS011;38420;53.150;6.370;2024-02-15T14:14:03;45.78;;;42.67;;
52508;SDS011;38420;53.150;6.370;2024-02-15T14:16:30;43.95;;;41.30;;
52508;SDS011;38420;53.150;6.370;2024-02-15T14:18:56;45.03;;;41.53;;
52508;SDS011;38420;53.150;6.370;2024-02-15T14:21:22;45.13;;;41.95;;
52508;SDS011;38420;53.150;6.370;2024-02-15T14:23:48;46.53;;;43.65;;
52508;SDS011;38420;53.150;6.370;2024-02-15T14:26:14;47.20;;;44.00;;
52508;SDS011;38420;53.150;6.370;2024-02-15T14:28:42;47.83;;;44.70;;
52508;SDS011;38420;53.150;6.370;2024-02-15T14:31:10;46.33;;;43.00;;
52508;SDS011;38420;53.150;6.370;2024-02-15T14:33:55;45.72;;;42.70;;
52508;SDS011;38420;53.150;6.370;2024-02-15T14:36:21;47.63;;;44.47;;
52508;SDS011;38420;53.150;6.370;2024-02-15T14:38:46;47.72;;;44.55;;
52508;SDS011;38420;53.150;6.370;2024-02-15T14:41:12;47.40;;;43.97;;
52508;SDS011;38420;53.150;6.370;2024-02-15T14:43:38;48.78;;;45.25;;
52508;SDS011;38420;53.150;6.370;2024-02-15T14:46:04;51.30;;;47.33;;
52508;SDS011;38420;53.150;6.370;2024-02-15T14:48:33;46.20;;;42.97;;
52508;SDS011;38420;53.150;6.370;2024-02-15T14:50:59;49.55;;;45.65;;
52508;SDS011;38420;53.150;6.370;2024-02-15T14:53:26;51.35;;;47.15;;